Rochester International Airport
KRST : rendu visible

Aérodrome :











RETROUVEZ-NOUS SUR...

 
LOGIN :

S'inscrire | Disclaimer

   EN    FR    IT 

 









Légende :    VFR   VFR Marginal   IFR   IFR Intensif   IFR Très Intensif
Visi : 
Plafond : 
>= 8 km
>= 3000ft
5 à 8 km
1000 à 3000 ft
1500m à 5 km
500 à 1000 ft
800 à 1500m
200 à 500 ft
< 800m
< 200 ft
Symboles :   Orages  Brouillard  Fortes neiges  Fortes précipitations  Vent > 20 kt






- Altitude de l'aérodrome : 1317 ft
- Code IATA : RST


KRST - Rochester International

DERNIER METAR :
  • 162254Z 15017G25KT 7SM CLR 02/M01 A3004 RMK AO2 SLP188 T00221011

METARs EXPIRÉS :
  • 162154Z 15013KT 8SM CLR 04/M01 A3006 RMK AO2 SLP194 T00391006
  • 162054Z 15019KT 7SM SCT120 04/00 A3008 RMK AO2 PK WND 16027/1955 SLP200 T00440000 57028

TAF KRST
Valide du 17 à 00h jusqu'au 18 à 00h UTC


162322Z 1700/1724 16016KT P6SM BKN120
FM170900 19010KT 4SM -RASN SCT007 OVC018
TEMPO 1710/1713 1 1/2SM -SN OVC005
FM171300 28008KT P6SM OVC009
FM171500 30012G19KT P6SM OVC014



MET'MAP, la Météo Aéronautique d'un coup d'oeil ! - Copyright ORBIFLY Décembre 2007 - Disclaimer

ORBIFLY MET'MAP TEAM :

Programmation & Développement : Alexandra Zaïnal
Conception & Développement : Baudouin d'Aumeries
Co-Programmation & Développement : Marc-Olivier Méhu
Soutien technique & logistique : Manuel Goepfert

Contact : metmap@orbifly.com




SOURCES & CREDITS :

   NOAA       Earth
Advisory